LKHB weather

Havlíčkův Brod Airport
Havlíčkův Brod, Vysočina Region, Czechia

Public forecast

Using degrees Celsius for public forecast. Weather courtesy of forecast.io.

METAR (pilot weather report)

Closest report is Čáslav Air Base, 21.6 nm (39.9 km) NNW. Retrieved 2019/05/21 09:00 UTC (57 minutes ago):

LKCV 210900Z 13005KT 070V180 9999 SCT029 SCT070 BKN200 17/12 Q1004 NOSIG

TAF (pilot weather forecast)

Closest forecast is Čáslav Air Base, 21.6 nm (39.9 km) NNW. Retrieved 2019/05/21 06:05 UTC (4 hours ago):

TAF LKCV 210500Z 2106/2206 VRB02KT CAVOK BECMG 2109/2111 15006KT 9999 BKN035 TEMPO 2111/2120 7000 SHRA SCT020TCU BKN030 BECMG 2118/2120 28008KT TEMPO 2201/2206 28010KT 7000 RA BKN020